Station: Mildura  

  Atmospheric Gas Attenuation - ITU Rec 676-11   ----------------- dB/100km -----------------
Date Time Temp RH % AH g/m3 Dew Point Wind Direction Speed kph Gust kph Barometer mB Rainfall Since 9am 24GHz 47GHz 76GHz 122GHz 134GHz 241GHz
08/05 12:40 17.3 61 8.99 9.7 17 24 1028.1 0 20.2 26.1 40.2 105.5 100.2 345.3
08/05 12:30 16.9 61 8.77 9.3 20 33 1028.3 0 19.8 25.8 39.6 103.7 97.9 337.1
08/05 12:20 17.3 61 8.99 9.7 20 26 1028.4 0 20.2 26.1 40.3 105.5 100.3 345.3
08/05 12:10 16.6 63 8.9 9.5 24 30 1028.5 0 20.1 26.1 40.3 105.5 100.0 344.3
08/05 12:00 16.7 64 9.09 9.9 19 28 1028.7 0 20.5 26.4 41.0 107.4 102.4 352.6
08/05 11:50 16.3 64 8.88 9.5 17 24 1028.7 0 20.0 26.2 40.3 105.7 100.2 344.8
08/05 11:40 16.2 65 8.96 9.6 19 20 1028.9 0 20.2 26.4 40.7 106.7 101.3 348.9
08/05 11:30 15.8 66 8.88 9.5 19 28 1029.1 0 20.1 26.4 40.6 106.4 100.8 347.1
08/05 11:20 15.8 66 8.88 9.5 19 26 1029.2 0 20.1 26.4 40.6 106.4 100.8 347.1
08/05 11:10 15.7 66 8.83 9.4 17 20 1029.3 0 20.0 26.3 40.5 106.1 100.3 345.3
08/05 11:00 15.8 66 8.88 9.5 17 26 1029.3 0 20.1 26.4 40.6 106.5 100.8 347.1
08/05 10:50 15.7 69 9.23 10 9 13 1029.3 0 20.8 27.0 42.1 110.3 105.6 363.8
08/05 10:40 15.1 68 8.77 9.2 19 22 1029.3 0 19.9 26.4 40.5 106.2 100.3 345.1
08/05 10:30 15.2 69 8.96 9.6 20 32 1029.4 0 20.3 26.7 41.3 108.1 102.7 353.5
08/05 10:20 15.3 68 8.88 9.4 19 26 1029.2 0 20.1 26.5 40.9 107.1 101.5 349.3
08/05 10:10 14.9 70 8.92 9.5 13 22 1029.1 0 20.2 26.7 41.2 108.1 102.5 352.9
08/05 10:00 14.4 74 9.15 9.8 11 20 1029 0 20.7 27.2 42.4 111.3 106.3 366.0
08/05 09:50 13.8 76 9.06 9.6 13 15 1029.1 0 20.6 27.3 42.4 111.1 105.9 364.5
08/05 09:40 13.3 79 9.13 9.7 11 13 1029.1 0 20.7 27.5 43.0 112.6 107.5 370.2
08/05 09:30 12.5 81 8.91 9.3 11 20 1029.2 0 20.3 27.4 42.5 111.3 105.6 363.4
08/05 09:20 12.1 83 8.9 9.3 11 15 1029.3 0 20.3 27.5 42.6 111.8 106.1 364.9
08/05 09:10 11.7 85 8.89 9.3 11 15 1029.4 0 20.3 27.6 42.8 112.3 106.5 366.3
08/05 09:00 11.4 87 8.93 9.3 9 17 1029.4 0 20.4 27.8 43.2 113.2 107.4 369.6
08/05 08:50 11.1 89 8.97 9.4 9 11 1029.2 0 20.5 27.9 43.5 114.0 108.4 373.0
08/05 08:40 10.8 90 8.9 9.2 11 15 1029.1 0 20.4 27.9 43.4 113.7 107.8 370.9
08/05 08:30 10.2 94 8.95 9.3 7 13 1029 0 20.5 28.2 43.9 115.1 109.4 376.3
08/05 08:20 9.7 96 8.85 9.1 9 11 1028.9 0 20.3 28.2 43.7 114.7 108.7 373.7
08/05 08:10 9.3 97 8.72 8.8 9 11 1028.8 0 20.1 28.1 43.4 113.8 107.4 369.1
08/05 08:00 8.9 98 8.59 8.6 9 13 1028.6 0 19.8 28.0 43.0 112.8 106.1 364.4
08/05 07:50 8.5 99 8.46 8.4 11 15 1028.4 0 19.5 27.9 42.7 111.9 104.7 359.8
08/05 07:40 8.4 99 8.4 8.3 9 15 1028.3 0 19.4 27.8 42.5 111.3 104.0 357.2
08/05 07:30 8.1 99 8.24 8 9 13 1028.1 0 19.1 27.6 41.9 109.9 102.1 350.5
08/05 07:20 7.8 97 7.92 7.4 9 11 1028 0 18.4 27.1 40.7 106.6 98.0 335.9
08/05 07:10 7.9 97 7.97 7.5 7 11 1028 0 18.5 27.2 40.9 107.0 98.5 338.0
08/05 07:00 8.1 98 8.16 7.8 9 13 1027.9 0 18.9 27.4 41.6 108.9 101.0 346.5
08/05 06:50 8.2 98 8.21 7.9 7 9 1028 0 19.0 27.5 41.7 109.4 101.5 348.6
08/05 06:40 7.9 97 7.97 7.5 6 9 1028 0 18.5 27.2 40.9 107.0 98.5 338.0
08/05 06:30 7.9 97 7.97 7.5 9 13 1027.9 0 18.5 27.2 40.9 107.0 98.5 337.9
08/05 06:20 7.8 95 7.76 7.1 9 13 1027.8 0 18.1 26.8 40.0 104.7 95.7 328.0
08/05 06:10 7.9 95 7.81 7.1 9 11 1027.7 0 18.2 26.9 40.2 105.2 96.3 330.0
08/05 06:00 8 95 7.86 7.2 9 17 1027.8 0 18.3 26.9 40.3 105.6 96.8 332.1
08/05 05:50 7.9 95 7.81 7.1 11 13 1027.9 0 18.2 26.9 40.2 105.2 96.3 330.0
08/05 05:40 8 94 7.77 7.1 11 13 1027.8 0 18.1 26.8 40.0 104.6 95.6 327.6
08/05 05:30 8.1 94 7.82 7.2 11 17 1027.8 0 18.2 26.9 40.1 105.0 96.2 329.7
08/05 05:20 7.9 94 7.72 7 11 15 1027.8 0 18.0 26.7 39.8 104.1 95.0 325.6
08/05 05:10 8.1 94 7.82 7.2 11 13 1027.9 0 18.2 26.9 40.1 105.0 96.2 329.7
08/05 05:00 8.2 95 7.96 7.4 11 17 1027.9 0 18.5 27.1 40.7 106.5 98.0 336.1
08/05 04:50 7.8 96 7.84 7.2 11 15 1027.9 0 18.2 27.0 40.4 105.6 96.8 332.0
08/05 04:40 7.5 95 7.61 6.8 11 11 1027.9 0 17.7 26.7 39.5 103.4 94.0 321.9
08/05 04:30 7.4 94 7.48 6.5 11 15 1027.9 0 17.5 26.5 39.0 102.1 92.3 315.9
08/05 04:20 7.4 94 7.48 6.5 11 13 1028 0 17.5 26.5 39.0 102.1 92.3 316.0
08/05 04:10 7.4 93 7.4 6.3 11 13 1027.9 0 17.3 26.3 38.7 101.2 91.1 312.0
08/05 04:00 7.5 92 7.37 6.3 9 15 1028 0 17.2 26.3 38.5 100.7 90.6 310.2
08/05 03:50 7.6 93 7.5 6.5 9 13 1028 0 17.5 26.5 39.0 102.1 92.3 316.1
08/05 03:40 7.4 92 7.32 6.2 9 11 1028 0 17.1 26.2 38.4 100.3 90.0 308.2
08/05 03:30 7.2 92 7.23 6 9 15 1028 0 16.9 26.1 38.1 99.5 89.0 304.6
08/05 03:20 6.9 91 7.01 5.5 9 11 1028 0 16.5 25.8 37.3 97.4 86.3 295.0
08/05 03:10 6.9 90 6.93 5.4 9 15 1028.2 0 16.3 25.7 37.0 96.6 85.2 291.2
08/05 03:00 6.9 90 6.93 5.4 11 15 1028.4 0 16.3 25.7 37.0 96.6 85.2 291.3
08/05 02:50 6.8 89 6.81 5.1 11 11 1028.3 0 16.1 25.5 36.5 95.4 83.7 285.8
08/05 02:40 6.9 89 6.85 5.2 9 13 1028.3 0 16.1 25.6 36.6 95.7 84.1 287.4
08/05 02:30 6.9 88 6.78 5.1 7 11 1028.2 0 16.0 25.5 36.3 94.9 83.2 284.0
08/05 02:20 7.1 87 6.79 5.1 7 9 1028.3 0 16.0 25.4 36.3 94.8 83.1 283.8
08/05 02:10 7.1 87 6.79 5.1 7 9 1028.3 0 16.0 25.4 36.3 94.8 83.1 283.8
08/05 02:00 7.1 87 6.79 5.1 9 11 1028.3 0 16.0 25.4 36.3 94.8 83.1 283.8
08/05 01:50 7 86 6.67 4.8 7 11 1028.3 0 15.7 25.3 35.8 93.6 81.6 278.4
08/05 01:40 7 86 6.67 4.8 11 15 1028.3 0 15.7 25.3 35.8 93.6 81.6 278.4
08/05 01:30 6.9 86 6.62 4.7 9 13 1028.4 0 15.6 25.2 35.7 93.2 81.0 276.4
08/05 01:20 6.9 86 6.62 4.7 11 13 1028.5 0 15.6 25.2 35.7 93.2 81.0 276.4
08/05 01:10 6.9 85 6.55 4.6 7 9 1028.6 0 15.5 25.1 35.4 92.4 80.1 273.1
08/05 01:00 7.1 84 6.55 4.6 9 11 1028.7 0 15.5 25.0 35.3 92.2 79.9 272.5
08/05 00:50 7.5 83 6.65 4.8 9 11 1028.8 0 15.7 25.1 35.6 92.8 80.8 275.8
08/05 00:40 7.8 81 6.61 4.7 6 7 1028.7 0 15.6 24.9 35.3 92.0 80.0 272.9
08/05 00:30 8.2 79 6.62 4.8 9 13 1028.8 0 15.6 24.9 35.1 91.7 79.7 272.0
08/05 00:20 8.4 78 6.62 4.8 9 11 1028.8 0 15.6 24.8 35.0 91.4 79.5 271.3
08/05 00:10 8.7 78 6.75 5.1 9 13 1028.8 0 15.8 24.9 35.4 92.5 80.9 276.3
08/05 00:00 8.7 77 6.66 4.9 11 15 1028.7 0 15.7 24.8 35.1 91.5 79.7 272.1
07/05 23:50 8.7 76 6.58 4.7 9 11 1028.8 0 15.5 24.6 34.7 90.7 78.6 268.4
07/05 23:40 8.8 76 6.62 4.8 11 15 1028.8 0 15.6 24.7 34.9 91.0 79.1 269.9
07/05 23:30 8.8 75 6.53 4.6 11 15 1028.7 0 15.4 24.5 34.5 90.0 77.9 265.7
07/05 23:20 9 74 6.53 4.6 9 13 1028.7 0 15.4 24.5 34.4 89.8 77.7 265.0
07/05 23:10 9.1 73 6.48 4.5 11 13 1028.7 0 15.3 24.4 34.2 89.1 76.9 262.4
07/05 23:00 9.3 72 6.47 4.5 11 17 1028.8 0 15.2 24.3 34.0 88.8 76.6 261.3
07/05 22:50 9.4 71 6.42 4.4 11 15 1028.9 0 15.1 24.2 33.8 88.2 75.9 258.7
07/05 22:40 9.5 70 6.37 4.3 9 11 1028.9 0 15.0 24.1 33.6 87.5 75.1 256.1
07/05 22:30 9.4 69 6.24 4 11 15 1028.9 0 14.7 23.9 33.1 86.3 73.5 250.5
07/05 22:20 9.8 68 6.31 4.2 11 15 1029 0 14.9 23.9 33.2 86.6 74.1 252.4
07/05 22:10 10.1 66 6.24 4 13 17 1029 0 14.7 23.7 32.8 85.5 72.9 248.3
07/05 22:00 10.6 64 6.25 4.1 13 20 1028.9 0 14.7 23.6 32.7 85.1 72.5 247.2
07/05 21:50 10.6 64 6.25 4.1 13 15 1028.8 0 14.7 23.6 32.6 85.1 72.5 247.2
07/05 21:40 10.7 64 6.29 4.2 13 15 1028.7 0 14.8 23.6 32.8 85.4 72.9 248.6
07/05 21:30 10.6 64 6.25 4.1 13 20 1028.8 0 14.7 23.6 32.6 85.1 72.5 247.2
07/05 21:20 10.4 64 6.17 3.9 11 17 1028.6 0 14.5 23.5 32.4 84.4 71.7 244.2
07/05 21:10 10.2 64 6.09 3.7 13 17 1028.5 0 14.4 23.5 32.2 83.8 70.8 241.2
07/05 21:00 10.1 64 6.05 3.6 11 15 1028.7 0 14.3 23.4 32.1 83.5 70.4 239.8
07/05 20:50 10.2 63 6 3.5 11 15 1028.7 0 14.2 23.3 31.8 82.9 69.7 237.2
07/05 20:40 10.1 62 5.86 3.2 11 11 1028.7 0 13.9 23.1 31.3 81.6 68.0 231.3
07/05 20:30 10 62 5.83 3.1 9 15 1028.7 0 13.8 23.1 31.3 81.4 67.7 230.3
07/05 20:20 10 62 5.83 3.1 9 13 1028.6 0 13.8 23.1 31.3 81.4 67.7 230.2
07/05 20:10 9.8 62 5.75 2.9 11 13 1028.6 0 13.7 23.0 31.0 80.8 66.9 227.3

Last Refresh: 08-May-2026 12:10:20

Bureau of Meteorology